createdAt,value
2023-01-24T09:58:07.965Z,21.12
2023-01-24T09:58:18.896Z,21.26
2023-01-24T09:58:28.906Z,21.42
2023-01-24T09:58:38.890Z,21.52
2023-01-24T09:58:48.898Z,21.67
2023-01-24T09:58:58.887Z,21.75
2023-01-24T09:59:08.905Z,21.84
2023-01-24T09:59:18.873Z,21.98
2023-01-24T09:59:28.883Z,22.05
2023-01-24T09:59:38.873Z,22.16
2023-01-24T09:59:48.887Z,22.22
2023-01-24T09:59:58.909Z,22.30
2023-01-24T10:00:08.855Z,22.37
2023-01-24T10:00:18.858Z,22.46
2023-01-24T10:00:28.851Z,22.50
2023-01-24T10:00:38.845Z,22.53
2023-01-24T10:00:48.839Z,22.61
2023-01-24T10:00:58.860Z,22.66
2023-01-24T10:01:08.827Z,22.71
2023-01-24T10:01:18.815Z,22.79
2023-01-24T10:01:28.829Z,22.87
2023-01-24T10:01:38.790Z,22.88
2023-01-24T10:01:48.833Z,22.95
2023-01-24T10:01:58.805Z,22.99
2023-01-24T10:02:08.844Z,23.05
2023-01-24T10:02:18.903Z,23.06
2023-01-24T10:02:28.872Z,23.09
2023-01-24T10:02:38.768Z,23.12
2023-01-24T10:02:48.750Z,23.18
2023-01-24T10:02:58.777Z,23.21
2023-01-24T10:03:08.729Z,23.25
2023-01-24T10:03:18.761Z,23.27
2023-01-24T10:03:28.844Z,23.29
2023-01-24T10:03:38.798Z,23.32
2023-01-24T10:03:48.696Z,23.34
2023-01-24T10:03:58.709Z,23.39
2023-01-24T10:04:08.691Z,23.41
2023-01-24T10:04:18.685Z,23.43
2023-01-24T10:04:28.655Z,23.46
2023-01-24T10:04:38.661Z,23.47
2023-01-24T10:04:48.650Z,23.51
2023-01-24T10:04:58.645Z,23.53
2023-01-24T10:05:08.620Z,23.53
2023-01-24T10:05:18.635Z,23.53
2023-01-24T10:05:28.602Z,23.58
2023-01-24T10:05:38.618Z,23.61
2023-01-24T10:05:48.589Z,23.61
2023-01-24T10:05:58.586Z,23.64
2023-01-24T10:06:08.590Z,23.65
2023-01-24T10:06:18.559Z,23.67
2023-01-24T10:06:30.177Z,23.68
2023-01-24T10:06:38.553Z,23.67
2023-01-24T10:06:48.518Z,23.69
2023-01-24T10:06:58.518Z,23.71
2023-01-24T10:07:08.501Z,23.73
2023-01-24T10:07:18.490Z,23.74
2023-01-24T10:07:28.477Z,23.73
2023-01-24T10:07:38.464Z,23.78
2023-01-24T10:07:48.458Z,23.80
2023-01-24T10:07:58.445Z,23.81
2023-01-24T10:08:08.426Z,23.83
2023-01-24T10:08:18.426Z,23.80
2023-01-24T10:08:28.401Z,23.81
2023-01-24T10:08:38.414Z,23.83
2023-01-24T10:08:48.373Z,23.84
2023-01-24T10:08:58.378Z,23.85
2023-01-24T10:09:08.368Z,23.85
2023-01-24T10:09:18.343Z,23.87
2023-01-24T10:09:28.361Z,23.88
2023-01-24T10:09:38.346Z,23.89
2023-01-24T10:09:48.303Z,23.88
2023-01-24T10:09:58.309Z,23.89
2023-01-24T10:10:08.274Z,23.92
2023-01-24T10:10:18.284Z,23.92
2023-01-24T10:10:28.253Z,23.92
2023-01-24T10:10:38.255Z,23.94
2023-01-24T10:10:48.227Z,23.91
2023-01-24T10:10:58.233Z,23.96
2023-01-24T10:11:08.241Z,23.95
2023-01-24T10:11:18.223Z,23.95
2023-01-24T10:11:28.189Z,23.96
2023-01-24T10:11:38.184Z,23.98
2023-01-24T10:11:48.172Z,23.98
2023-01-24T10:11:58.155Z,23.99
2023-01-24T10:12:10.546Z,23.99
2023-01-24T10:12:18.141Z,24.01
2023-01-24T10:12:28.128Z,23.99
2023-01-24T10:12:38.145Z,24.01
2023-01-24T10:12:48.111Z,24.01
2023-01-24T10:12:58.092Z,24.03
2023-01-24T10:13:08.063Z,24.02
2023-01-24T10:13:18.065Z,24.02
2023-01-24T10:13:28.040Z,24.05
2023-01-24T10:13:38.024Z,24.06
2023-01-24T10:13:47.999Z,24.06
2023-01-24T10:13:58.009Z,24.08
2023-01-24T10:14:07.973Z,24.06
2023-01-24T10:14:17.978Z,24.06
2023-01-24T10:14:27.959Z,24.08
2023-01-24T10:14:38.038Z,24.09
2023-01-24T10:14:47.928Z,24.08
2023-01-24T10:14:57.918Z,24.11
2023-01-24T10:15:07.905Z,24.12
2023-01-24T10:15:17.895Z,24.11
2023-01-24T10:15:27.862Z,24.12
2023-01-24T10:15:37.868Z,24.12
2023-01-24T10:15:47.840Z,24.13
2023-01-24T10:15:57.861Z,24.16
2023-01-24T10:16:07.823Z,24.12
2023-01-24T10:16:17.893Z,24.13
2023-01-24T10:16:27.831Z,24.13
2023-01-24T10:16:37.897Z,24.15
2023-01-24T10:16:47.854Z,24.15
2023-01-24T10:16:57.798Z,24.15
2023-01-24T10:17:07.737Z,24.15
2023-01-24T10:17:17.734Z,24.15
2023-01-24T10:17:27.712Z,24.17
2023-01-24T10:17:37.711Z,24.15
2023-01-24T10:17:47.686Z,24.16
2023-01-24T10:17:57.816Z,24.16
2023-01-24T10:18:07.662Z,24.19
2023-01-24T10:18:17.655Z,24.17
2023-01-24T10:18:27.637Z,24.17
2023-01-24T10:18:37.626Z,24.20
2023-01-24T10:18:47.612Z,24.19
2023-01-24T10:18:57.608Z,24.20
2023-01-24T10:19:07.580Z,24.20
2023-01-24T10:19:17.577Z,24.20
2023-01-24T10:19:27.545Z,24.20
2023-01-24T10:19:37.545Z,24.23
2023-01-24T10:19:47.530Z,24.23
2023-01-24T10:19:57.532Z,24.24
2023-01-24T10:20:07.500Z,24.23
2023-01-24T10:20:17.499Z,24.23
2023-01-24T10:20:27.469Z,24.24
2023-01-24T10:20:37.464Z,24.29
2023-01-24T10:20:47.434Z,24.26
2023-01-24T10:20:57.444Z,24.26
2023-01-24T10:21:07.402Z,24.27
2023-01-24T10:21:17.399Z,24.27
2023-01-24T10:21:27.383Z,24.27
2023-01-24T10:21:37.394Z,24.26
2023-01-24T10:21:47.357Z,24.29
2023-01-24T10:21:57.367Z,24.27
2023-01-24T10:22:07.332Z,24.29
2023-01-24T10:22:18.992Z,24.32
2023-01-24T10:22:27.301Z,24.32
2023-01-24T10:22:37.299Z,24.29
2023-01-24T10:22:47.263Z,24.30
2023-01-24T10:22:57.265Z,24.30
2023-01-24T10:23:07.240Z,24.30
2023-01-24T10:23:17.236Z,24.32
2023-01-24T10:23:27.207Z,24.32
2023-01-24T10:23:37.205Z,24.35
2023-01-24T10:23:47.236Z,24.32
2023-01-24T10:23:57.202Z,24.32
2023-01-24T10:24:07.202Z,24.32
2023-01-24T10:24:17.186Z,24.35
2023-01-24T10:24:27.180Z,24.35
2023-01-24T10:24:37.112Z,24.33
2023-01-24T10:24:47.097Z,24.36
2023-01-24T10:24:57.084Z,24.33
2023-01-24T10:25:07.066Z,24.37
2023-01-24T10:25:17.060Z,24.37
2023-01-24T10:25:27.027Z,24.37
2023-01-24T10:25:37.041Z,24.36
2023-01-24T10:25:47.032Z,24.37
2023-01-24T10:25:56.995Z,24.37
2023-01-24T10:26:06.974Z,24.36
2023-01-24T10:26:16.976Z,24.36
2023-01-24T10:26:26.939Z,24.37
2023-01-24T10:26:36.934Z,24.37
2023-01-24T10:26:46.941Z,24.39
2023-01-24T10:26:56.915Z,24.40
2023-01-24T10:27:06.877Z,24.40
2023-01-24T10:27:16.871Z,24.40
2023-01-24T10:27:26.845Z,24.40
2023-01-24T10:27:36.844Z,24.39
2023-01-24T10:27:46.837Z,24.42
2023-01-24T10:27:56.822Z,24.42
2023-01-24T10:28:06.803Z,24.43
2023-01-24T10:28:16.806Z,24.42
2023-01-24T10:28:26.766Z,24.40
2023-01-24T10:28:36.752Z,24.44
2023-01-24T10:28:46.763Z,24.44
2023-01-24T10:28:56.718Z,24.43
2023-01-24T10:29:06.704Z,24.44
2023-01-24T10:29:16.695Z,24.44
2023-01-24T10:29:26.667Z,24.44
2023-01-24T10:29:36.671Z,24.43
2023-01-24T10:29:46.647Z,24.43
2023-01-24T10:29:56.636Z,24.46
2023-01-24T10:30:06.616Z,24.46
2023-01-24T10:30:16.603Z,24.46
2023-01-24T10:30:26.639Z,24.47
2023-01-24T10:30:36.706Z,24.46
2023-01-24T10:30:46.657Z,24.46
2023-01-24T10:30:56.708Z,24.46
2023-01-24T10:31:06.629Z,24.48
2023-01-24T10:31:16.600Z,24.46
2023-01-24T10:31:26.697Z,24.47
2023-01-24T10:31:36.599Z,24.47
2023-01-24T10:31:46.527Z,24.47
2023-01-24T10:31:56.551Z,24.47
2023-01-24T10:32:06.436Z,24.48
2023-01-24T10:32:16.437Z,24.48
2023-01-24T10:32:26.401Z,24.47
2023-01-24T10:32:36.401Z,24.46
2023-01-24T10:32:46.367Z,24.50
2023-01-24T10:32:56.366Z,24.50
2023-01-24T10:33:06.348Z,24.51
2023-01-24T10:33:16.326Z,24.50
2023-01-24T10:33:26.312Z,24.50
2023-01-24T10:33:36.310Z,24.53
2023-01-24T10:33:46.272Z,24.51
2023-01-24T10:33:56.273Z,24.50
2023-01-24T10:34:06.242Z,24.51
2023-01-24T10:34:16.243Z,24.56
2023-01-24T10:34:26.226Z,24.54
2023-01-24T10:34:36.234Z,24.54
2023-01-24T10:34:46.177Z,24.51
2023-01-24T10:34:56.168Z,24.51
2023-01-24T10:35:06.149Z,24.54
2023-01-24T10:35:16.141Z,24.54
2023-01-24T10:35:26.599Z,24.56
2023-01-24T10:35:36.112Z,24.54
2023-01-24T10:35:46.079Z,24.51
2023-01-24T10:35:56.083Z,24.54
2023-01-24T10:36:06.046Z,24.56
2023-01-24T10:36:16.036Z,24.54
2023-01-24T10:36:26.035Z,24.54
2023-01-24T10:36:36.018Z,24.56
2023-01-24T10:36:46.001Z,24.58
2023-01-24T10:36:55.990Z,24.56
2023-01-24T10:37:05.999Z,24.57
2023-01-24T10:37:15.959Z,24.58
2023-01-24T10:37:25.941Z,24.56
2023-01-24T10:37:35.925Z,24.57
2023-01-24T10:37:45.898Z,24.58
2023-01-24T10:37:55.886Z,24.57
2023-01-24T10:38:05.871Z,24.57
2023-01-24T10:38:15.867Z,24.58
2023-01-24T10:38:25.841Z,24.58
2023-01-24T10:38:35.828Z,24.58
2023-01-24T10:38:45.807Z,24.58
2023-01-24T10:38:55.794Z,24.60
2023-01-24T10:39:05.773Z,24.58
2023-01-24T10:39:15.766Z,24.61
2023-01-24T10:39:25.803Z,24.60
2023-01-24T10:39:35.732Z,24.61
2023-01-24T10:39:45.704Z,24.63
2023-01-24T10:39:55.717Z,24.60
2023-01-24T10:40:05.674Z,24.63
2023-01-24T10:40:15.865Z,24.67
2023-01-24T10:40:25.652Z,24.63
2023-01-24T10:40:35.647Z,24.63
2023-01-24T10:40:45.619Z,24.61
2023-01-24T10:40:55.604Z,24.65
2023-01-24T10:41:05.582Z,24.64
2023-01-24T10:41:15.585Z,24.64
2023-01-24T10:41:25.553Z,24.67
2023-01-24T10:41:35.550Z,24.65
2023-01-24T10:41:45.521Z,24.65
2023-01-24T10:41:55.526Z,24.68
2023-01-24T10:42:05.488Z,24.67
2023-01-24T10:42:15.487Z,24.67
2023-01-24T10:42:25.476Z,24.65
2023-01-24T10:42:35.443Z,24.65
2023-01-24T10:42:45.427Z,24.65
2023-01-24T10:42:55.413Z,24.68
2023-01-24T10:43:05.384Z,24.67
2023-01-24T10:43:15.386Z,24.68
2023-01-24T10:43:25.354Z,24.70
2023-01-24T10:43:35.354Z,24.71
2023-01-24T10:43:45.323Z,24.68
2023-01-24T10:43:55.310Z,24.67
2023-01-24T10:44:05.313Z,24.68
2023-01-24T10:44:15.287Z,24.68
2023-01-24T10:44:25.249Z,24.71
2023-01-24T10:44:35.250Z,24.74
2023-01-24T10:44:45.215Z,24.74
2023-01-24T10:44:55.201Z,24.71
2023-01-24T10:45:05.203Z,24.72
2023-01-24T10:45:15.236Z,24.70
2023-01-24T10:45:25.414Z,24.70
2023-01-24T10:45:35.155Z,24.71
2023-01-24T10:45:45.166Z,24.71
2023-01-24T10:45:55.134Z,24.72
2023-01-24T10:46:05.112Z,24.72
2023-01-24T10:46:15.085Z,24.71
2023-01-24T10:46:25.106Z,24.72
2023-01-24T10:46:35.043Z,24.72
2023-01-24T10:46:45.034Z,24.70
2023-01-24T10:46:55.032Z,24.70
2023-01-24T10:47:05.011Z,24.71
2023-01-24T10:47:14.983Z,24.74
2023-01-24T10:47:25.575Z,24.72
2023-01-24T10:47:34.959Z,24.71
2023-01-24T10:47:44.943Z,24.71
2023-01-24T10:47:54.922Z,24.74
2023-01-24T10:48:04.915Z,24.74
2023-01-24T10:48:14.878Z,24.70
2023-01-24T10:48:24.867Z,24.68
2023-01-24T10:48:34.847Z,24.74
2023-01-24T10:48:44.839Z,24.75
2023-01-24T10:48:54.839Z,24.77
2023-01-24T10:49:04.815Z,24.77
2023-01-24T10:49:14.789Z,24.77
2023-01-24T10:49:24.780Z,24.75
2023-01-24T10:49:34.747Z,24.77
2023-01-24T10:49:44.748Z,24.78
2023-01-24T10:49:54.717Z,24.75
2023-01-24T10:50:04.726Z,24.77
2023-01-24T10:50:14.678Z,24.75
2023-01-24T10:50:24.679Z,24.79
2023-01-24T10:50:34.654Z,24.79
2023-01-24T10:50:44.656Z,24.79
2023-01-24T10:50:54.629Z,24.78
2023-01-24T10:51:04.616Z,24.81
2023-01-24T10:51:14.608Z,24.81
2023-01-24T10:51:24.589Z,24.83
2023-01-24T10:51:34.559Z,24.78
2023-01-24T10:51:44.556Z,24.75
2023-01-24T10:51:54.526Z,24.78
2023-01-24T10:52:04.527Z,24.78
2023-01-24T10:52:14.506Z,24.78
2023-01-24T10:52:24.489Z,24.77
2023-01-24T10:52:34.527Z,24.78
2023-01-24T10:52:44.463Z,24.78
2023-01-24T10:52:54.444Z,24.81
2023-01-24T10:53:04.440Z,24.81
2023-01-24T10:53:15.734Z,24.81
2023-01-24T10:53:31.486Z,24.81
2023-01-24T10:53:36.277Z,24.81
2023-01-24T10:53:46.278Z,24.83
2023-01-24T10:53:56.247Z,24.79
2023-01-24T10:54:06.250Z,24.81
2023-01-24T10:54:16.225Z,24.81
2023-01-24T10:54:26.216Z,24.82
2023-01-24T10:54:36.205Z,24.85
2023-01-24T10:54:46.186Z,24.83
2023-01-24T10:54:56.167Z,24.83
2023-01-24T10:55:06.149Z,24.85
2023-01-24T10:55:16.208Z,24.88
2023-01-24T10:55:26.123Z,24.88
2023-01-24T10:55:36.075Z,24.85
2023-01-24T10:55:46.078Z,24.82
2023-01-24T10:55:56.051Z,24.89
2023-01-24T10:56:06.062Z,24.88
2023-01-24T10:56:16.027Z,24.88
2023-01-24T10:56:26.007Z,24.88
2023-01-24T10:56:36.030Z,24.88
2023-01-24T10:56:45.966Z,24.86
2023-01-24T10:56:55.949Z,24.89
2023-01-24T10:57:05.947Z,24.86
2023-01-24T10:57:15.915Z,24.89
2023-01-24T10:57:25.913Z,24.88
2023-01-24T10:57:35.920Z,24.91
2023-01-24T10:57:45.894Z,24.91
2023-01-24T10:57:55.934Z,24.89
2023-01-24T10:58:05.848Z,24.89
2023-01-24T10:58:15.833Z,24.89
2023-01-24T10:58:25.807Z,24.89
2023-01-24T10:58:38.313Z,24.88
2023-01-24T10:58:45.774Z,24.89
2023-01-24T10:58:55.739Z,24.89
2023-01-24T10:59:05.742Z,24.88
2023-01-24T10:59:15.709Z,24.91
2023-01-24T10:59:25.710Z,24.94
2023-01-24T10:59:35.685Z,24.92
2023-01-24T10:59:45.681Z,24.88
2023-01-24T10:59:55.646Z,24.94
2023-01-24T11:00:05.643Z,24.94
2023-01-24T11:00:15.625Z,24.91
2023-01-24T11:00:25.596Z,24.94
2023-01-24T11:00:35.566Z,24.95
2023-01-24T11:00:45.569Z,24.95
2023-01-24T11:00:55.550Z,24.95
2023-01-24T11:01:05.597Z,24.95
2023-01-24T11:01:15.573Z,24.94
2023-01-24T11:01:25.605Z,24.92
2023-01-24T11:01:35.550Z,24.95
2023-01-24T11:01:45.468Z,24.95
2023-01-24T11:01:55.442Z,24.97
2023-01-24T11:02:05.476Z,24.99
2023-01-24T11:02:15.416Z,24.95
2023-01-24T11:02:25.469Z,24.97
2023-01-24T11:02:35.402Z,24.94
2023-01-24T11:02:45.543Z,24.92
2023-01-24T11:02:55.373Z,24.94
2023-01-24T11:03:05.340Z,24.97
2023-01-24T11:03:15.315Z,24.98
2023-01-24T11:03:25.297Z,24.99
2023-01-24T11:03:35.273Z,24.98
2023-01-24T11:03:45.264Z,24.99
2023-01-24T11:03:55.251Z,24.98
2023-01-24T11:04:05.225Z,24.98
2023-01-24T11:04:15.198Z,24.99
2023-01-24T11:04:25.209Z,24.98
2023-01-24T11:04:35.168Z,24.98
2023-01-24T11:04:45.160Z,24.99
2023-01-24T11:04:55.135Z,24.98
2023-01-24T11:05:05.128Z,24.98
2023-01-24T11:05:15.101Z,25.03
2023-01-24T11:05:25.547Z,25.01
2023-01-24T11:05:35.058Z,25.01
2023-01-24T11:05:45.058Z,25.01
2023-01-24T11:05:55.030Z,25.02
2023-01-24T11:06:05.031Z,24.99
2023-01-24T11:06:15.003Z,25.01
2023-01-24T11:06:25.022Z,25.02
2023-01-24T11:06:34.973Z,25.03
2023-01-24T11:06:44.958Z,25.02
2023-01-24T11:06:54.930Z,25.02
2023-01-24T11:07:04.925Z,25.03
2023-01-24T11:07:14.891Z,25.02
2023-01-24T11:07:24.884Z,25.05
2023-01-24T11:07:34.894Z,25.01
2023-01-24T11:07:44.858Z,24.99
2023-01-24T11:07:54.865Z,25.02
2023-01-24T11:08:04.828Z,25.01
2023-01-24T11:08:14.804Z,25.02
2023-01-24T11:08:24.797Z,25.02
2023-01-24T11:08:34.759Z,25.03
2023-01-24T11:08:44.755Z,25.02
2023-01-24T11:08:54.723Z,25.02
2023-01-24T11:09:04.732Z,24.99
2023-01-24T11:09:14.691Z,24.99
2023-01-24T11:09:24.697Z,24.98
2023-01-24T11:09:34.668Z,25.01
2023-01-24T11:09:44.655Z,25.01
2023-01-24T11:09:54.636Z,25.02
2023-01-24T11:10:04.619Z,25.03
2023-01-24T11:10:14.596Z,25.05
2023-01-24T11:10:24.606Z,25.03
2023-01-24T11:10:34.562Z,25.05
2023-01-24T11:10:44.559Z,25.06
2023-01-24T11:10:54.540Z,25.06
2023-01-24T11:11:04.531Z,25.06
2023-01-24T11:11:14.512Z,25.03
2023-01-24T11:11:24.484Z,25.05
2023-01-24T11:11:34.477Z,25.03
2023-01-24T11:11:44.460Z,25.06
2023-01-24T11:11:54.458Z,25.05
2023-01-24T11:12:04.419Z,25.06
2023-01-24T11:12:14.411Z,25.03
2023-01-24T11:12:24.397Z,25.05
2023-01-24T11:12:34.355Z,25.05
2023-01-24T11:12:44.372Z,25.06
2023-01-24T11:12:55.327Z,25.05
2023-01-24T11:13:04.337Z,25.06
2023-01-24T11:13:14.306Z,25.08
2023-01-24T11:13:24.287Z,25.06
2023-01-24T11:13:34.259Z,25.08
2023-01-24T11:13:44.262Z,25.05
2023-01-24T11:13:54.296Z,25.03
2023-01-24T11:14:04.232Z,25.03
2023-01-24T11:14:14.189Z,25.03
2023-01-24T11:14:24.180Z,25.05
2023-01-24T11:14:34.158Z,25.06
2023-01-24T11:14:44.165Z,25.06
2023-01-24T11:14:54.132Z,25.08
2023-01-24T11:15:04.116Z,25.10
2023-01-24T11:15:14.092Z,25.08
2023-01-24T11:15:24.461Z,25.09
2023-01-24T11:15:34.072Z,25.05
2023-01-24T11:15:44.038Z,25.05
2023-01-24T11:15:54.014Z,25.06
2023-01-24T11:16:04.012Z,25.05
2023-01-24T11:16:13.991Z,25.05
2023-01-24T11:16:23.979Z,25.06
2023-01-24T11:16:33.983Z,25.06
2023-01-24T11:16:44.005Z,25.06
2023-01-24T11:16:53.914Z,25.08
2023-01-24T11:17:04.036Z,25.08
2023-01-24T11:17:13.966Z,25.08
2023-01-24T11:17:23.869Z,25.03
2023-01-24T11:17:33.833Z,25.06
2023-01-24T11:17:43.827Z,25.03
2023-01-24T11:17:53.818Z,25.03
2023-01-24T11:18:03.795Z,25.01
2023-01-24T11:18:13.782Z,25.02
2023-01-24T11:18:23.774Z,25.02
2023-01-24T11:18:33.738Z,25.05
2023-01-24T11:18:43.731Z,25.08
2023-01-24T11:18:53.697Z,25.06
2023-01-24T11:19:05.706Z,25.05
2023-01-24T11:19:13.673Z,25.03
2023-01-24T11:19:23.668Z,25.05
2023-01-24T11:19:33.622Z,25.06
2023-01-24T11:19:43.624Z,25.05
2023-01-24T11:19:53.597Z,25.02
2023-01-24T11:20:03.588Z,25.02
2023-01-24T11:20:13.571Z,25.06
2023-01-24T11:20:23.549Z,25.05
2023-01-24T11:20:33.532Z,25.06
2023-01-24T11:20:43.514Z,25.06
2023-01-24T11:20:53.482Z,25.02
2023-01-24T11:21:03.487Z,25.06
2023-01-24T11:21:13.452Z,25.05
2023-01-24T11:21:23.475Z,25.05
2023-01-24T11:21:33.433Z,25.05
2023-01-24T11:21:43.406Z,25.05
2023-01-24T11:21:53.400Z,25.05
2023-01-24T11:22:03.413Z,25.08
2023-01-24T11:22:13.358Z,25.08
2023-01-24T11:22:23.362Z,25.03
2023-01-24T11:22:33.328Z,25.03
2023-01-24T11:22:43.311Z,25.03
2023-01-24T11:22:53.297Z,25.05
2023-01-24T11:23:03.302Z,25.06
2023-01-24T11:23:13.258Z,25.06
2023-01-24T11:23:23.252Z,25.06
2023-01-24T11:23:33.241Z,25.05
2023-01-24T11:23:43.343Z,25.05
2023-01-24T11:23:53.233Z,25.05
2023-01-24T11:24:03.276Z,25.03
2023-01-24T11:24:13.194Z,25.02
2023-01-24T11:24:23.264Z,25.03
2023-01-24T11:24:33.114Z,25.01
2023-01-24T11:24:43.116Z,25.02
2023-01-24T11:24:55.594Z,25.05
2023-01-24T11:25:03.080Z,25.06
2023-01-24T11:25:13.052Z,25.03
2023-01-24T11:25:23.260Z,25.08
2023-01-24T11:25:33.030Z,25.08
2023-01-24T11:25:43.019Z,25.05
2023-01-24T11:25:53.035Z,25.06
2023-01-24T11:26:02.978Z,25.09
2023-01-24T11:26:12.952Z,25.06
2023-01-24T11:26:22.976Z,25.03
2023-01-24T11:26:32.920Z,25.03
2023-01-24T11:26:42.897Z,25.06
2023-01-24T11:26:52.880Z,25.08
2023-01-24T11:27:02.885Z,25.08
2023-01-24T11:27:12.845Z,25.06
2023-01-24T11:27:22.834Z,25.08
2023-01-24T11:27:32.834Z,25.06
2023-01-24T11:27:42.800Z,25.06
2023-01-24T11:27:52.791Z,25.06
2023-01-24T11:28:02.772Z,25.06
2023-01-24T11:28:12.770Z,25.06
2023-01-24T11:28:22.723Z,25.05
2023-01-24T11:28:32.732Z,25.06
2023-01-24T11:28:42.683Z,25.08
2023-01-24T11:28:52.685Z,25.02
2023-01-24T11:29:02.655Z,25.02
2023-01-24T11:29:12.649Z,25.06
2023-01-24T11:29:22.619Z,25.08
2023-01-24T11:29:32.612Z,25.05
2023-01-24T11:29:42.592Z,25.06
2023-01-24T11:29:52.580Z,25.10
2023-01-24T11:30:02.543Z,25.08
2023-01-24T11:30:12.548Z,25.10
2023-01-24T11:30:22.512Z,25.10
2023-01-24T11:30:32.507Z,25.10
2023-01-24T11:30:42.494Z,25.09
2023-01-24T11:30:52.507Z,25.10
2023-01-24T11:31:02.634Z,25.09
2023-01-24T11:31:12.533Z,25.10
2023-01-24T11:31:22.594Z,25.10
2023-01-24T11:31:33.176Z,25.08
2023-01-24T11:31:42.523Z,25.12
2023-01-24T11:31:52.566Z,25.12
2023-01-24T11:32:02.409Z,25.10
2023-01-24T11:32:12.337Z,25.09
2023-01-24T11:32:22.318Z,25.09
2023-01-24T11:32:32.308Z,25.09
2023-01-24T11:32:42.284Z,25.09
2023-01-24T11:32:52.276Z,25.10
2023-01-24T11:33:02.285Z,25.09
2023-01-24T11:33:12.239Z,25.06
2023-01-24T11:33:22.231Z,25.10
2023-01-24T11:33:32.195Z,25.08
2023-01-24T11:33:42.173Z,25.12
2023-01-24T11:33:52.165Z,25.10
2023-01-24T11:34:02.133Z,25.09
2023-01-24T11:34:12.130Z,25.09
2023-01-24T11:34:22.112Z,25.05
2023-01-24T11:34:32.099Z,25.08
2023-01-24T11:34:42.088Z,25.10
2023-01-24T11:34:52.096Z,25.08
2023-01-24T11:35:02.043Z,25.10
2023-01-24T11:35:12.037Z,25.09
2023-01-24T11:35:22.435Z,25.12
2023-01-24T11:35:31.993Z,25.10
2023-01-24T11:35:41.967Z,25.12
2023-01-24T11:35:51.958Z,25.10
2023-01-24T11:36:01.933Z,25.10
2023-01-24T11:36:11.934Z,25.09
2023-01-24T11:36:21.902Z,25.10
2023-01-24T11:36:31.910Z,25.09
2023-01-24T11:36:41.869Z,25.09
2023-01-24T11:36:51.872Z,25.06
2023-01-24T11:37:01.831Z,25.09
2023-01-24T11:37:11.824Z,25.10
2023-01-24T11:37:21.797Z,25.12
2023-01-24T11:37:31.787Z,25.10
2023-01-24T11:37:41.795Z,25.10
2023-01-24T11:37:51.757Z,25.10
2023-01-24T11:38:01.734Z,25.12
2023-01-24T11:38:11.737Z,25.12
2023-01-24T11:38:21.700Z,25.10
2023-01-24T11:38:31.735Z,25.09
2023-01-24T11:38:41.662Z,25.09
2023-01-24T11:38:51.666Z,25.12
2023-01-24T11:39:01.642Z,25.10
2023-01-24T11:39:11.617Z,25.10
2023-01-24T11:39:21.589Z,25.10
2023-01-24T11:39:31.596Z,25.09
2023-01-24T11:39:41.567Z,25.08
2023-01-24T11:39:51.562Z,25.09
2023-01-24T11:40:01.564Z,25.09
2023-01-24T11:40:11.548Z,25.08
2023-01-24T11:40:21.485Z,25.06
2023-01-24T11:40:31.476Z,25.09
2023-01-24T11:40:41.478Z,25.08
2023-01-24T11:40:51.451Z,25.09
2023-01-24T11:41:01.414Z,25.10
2023-01-24T11:41:11.420Z,25.10
2023-01-24T11:41:22.818Z,25.08
2023-01-24T11:41:31.386Z,25.08
2023-01-24T11:41:41.362Z,25.09
2023-01-24T11:41:51.341Z,25.06
2023-01-24T11:42:01.326Z,25.10
2023-01-24T11:42:11.322Z,25.06
2023-01-24T11:42:21.284Z,25.10
2023-01-24T11:42:31.304Z,25.05
2023-01-24T11:42:41.249Z,25.08
2023-01-24T11:42:51.240Z,25.09
2023-01-24T11:43:01.221Z,25.10
2023-01-24T11:43:11.210Z,25.09
2023-01-24T11:43:21.197Z,25.08
2023-01-24T11:43:31.171Z,25.10
2023-01-24T11:43:41.172Z,25.10
2023-01-24T11:43:51.147Z,25.09
2023-01-24T11:44:01.122Z,25.10
2023-01-24T11:44:11.110Z,25.10
2023-01-24T11:44:21.133Z,25.12
2023-01-24T11:44:31.076Z,25.10
2023-01-24T11:44:41.043Z,25.10
2023-01-24T11:44:51.050Z,25.12
2023-01-24T11:45:01.028Z,25.10
2023-01-24T11:45:11.006Z,25.10
2023-01-24T11:45:21.434Z,25.10
2023-01-24T11:45:30.976Z,25.09
2023-01-24T11:45:40.987Z,25.10
2023-01-24T11:45:50.941Z,25.10
2023-01-24T11:46:00.917Z,25.12
2023-01-24T11:46:10.902Z,25.09
2023-01-24T11:46:20.876Z,25.08
2023-01-24T11:46:30.875Z,25.09
2023-01-24T11:46:41.500Z,25.09
2023-01-24T11:46:50.841Z,25.09
2023-01-24T11:47:00.873Z,25.09
2023-01-24T11:47:10.909Z,25.08
2023-01-24T11:47:20.832Z,25.09
2023-01-24T11:47:30.802Z,25.08
2023-01-24T11:47:40.753Z,25.02
2023-01-24T11:47:50.734Z,25.02
2023-01-24T11:48:00.714Z,24.97
2023-01-24T11:48:10.710Z,24.95
2023-01-24T11:48:20.685Z,24.97
2023-01-24T11:48:30.671Z,24.97
2023-01-24T11:48:40.645Z,25.01
2023-01-24T11:48:50.664Z,25.03
2023-01-24T11:49:00.612Z,25.05
2023-01-24T11:49:10.607Z,25.03
2023-01-24T11:49:20.574Z,25.05
2023-01-24T11:49:30.571Z,25.06
2023-01-24T11:49:40.545Z,25.05
2023-01-24T11:49:50.534Z,25.06
2023-01-24T11:50:00.521Z,25.06
2023-01-24T11:50:10.511Z,25.03
2023-01-24T11:50:20.475Z,25.08
2023-01-24T11:50:30.466Z,25.08
2023-01-24T11:50:40.434Z,25.05
2023-01-24T11:50:50.429Z,25.08
2023-01-24T11:51:12.841Z,25.08
2023-01-24T11:51:18.548Z,25.08
2023-01-24T11:51:23.179Z,25.09
2023-01-24T11:51:33.172Z,25.06
2023-01-24T11:51:43.147Z,25.08
2023-01-24T11:51:53.142Z,25.08
2023-01-24T11:52:05.317Z,25.08
2023-01-24T11:52:13.094Z,25.08
2023-01-24T11:52:23.066Z,25.08
2023-01-24T11:52:33.065Z,25.09
2023-01-24T11:52:43.043Z,25.06
2023-01-24T11:52:53.041Z,25.06
2023-01-24T11:53:02.999Z,25.05
2023-01-24T11:53:12.993Z,25.03
2023-01-24T11:53:22.966Z,25.02
2023-01-24T11:53:32.956Z,24.99
2023-01-24T11:53:42.931Z,25.03
2023-01-24T11:53:52.968Z,25.02
2023-01-24T11:54:02.902Z,25.02
2023-01-24T11:54:12.890Z,25.05
2023-01-24T11:54:22.861Z,25.05
2023-01-24T11:54:32.856Z,25.06
2023-01-24T11:54:42.830Z,25.10
2023-01-24T11:54:52.826Z,25.09
2023-01-24T11:55:02.813Z,25.12
2023-01-24T11:55:12.796Z,25.12
2023-01-24T11:55:22.938Z,25.12
2023-01-24T11:55:32.758Z,25.08
2023-01-24T11:55:42.747Z,25.09
2023-01-24T11:55:52.727Z,25.09
2023-01-24T11:56:02.724Z,25.12
2023-01-24T11:56:12.687Z,25.10
2023-01-24T11:56:22.661Z,25.12
2023-01-24T11:56:32.670Z,25.09
2023-01-24T11:56:42.632Z,25.12
2023-01-24T11:56:52.623Z,25.13
2023-01-24T11:57:02.594Z,25.12
2023-01-24T11:57:12.581Z,25.10
2023-01-24T11:57:23.143Z,25.12
2023-01-24T11:57:32.547Z,25.12
2023-01-24T11:57:42.515Z,25.10
2023-01-24T11:57:52.551Z,25.12
2023-01-24T11:58:02.484Z,25.10
2023-01-24T11:58:12.483Z,25.10
2023-01-24T11:58:22.450Z,25.10
2023-01-24T11:58:32.442Z,25.10
2023-01-24T11:58:42.424Z,25.08
2023-01-24T11:58:52.435Z,25.12
2023-01-24T11:59:02.402Z,25.08
2023-01-24T11:59:12.380Z,25.08
2023-01-24T11:59:22.349Z,25.10
2023-01-24T11:59:32.347Z,25.10
2023-01-24T11:59:42.326Z,25.12
2023-01-24T11:59:52.322Z,25.12
2023-01-24T12:00:02.286Z,25.12
2023-01-24T12:00:12.280Z,25.12
2023-01-24T12:00:22.256Z,25.12
2023-01-24T12:00:32.245Z,25.15
2023-01-24T12:00:42.234Z,25.13
2023-01-24T12:00:52.222Z,25.13
2023-01-24T12:01:02.178Z,25.12
2023-01-24T12:01:12.193Z,25.12
2023-01-24T12:01:22.156Z,25.15
2023-01-24T12:01:32.146Z,25.10
2023-01-24T12:01:42.135Z,25.13
2023-01-24T12:01:52.115Z,25.12
2023-01-24T12:02:02.084Z,25.13
2023-01-24T12:02:12.103Z,25.15
2023-01-24T12:02:22.156Z,25.15
2023-01-24T12:02:32.075Z,25.09
2023-01-24T12:02:42.073Z,25.09
2023-01-24T12:02:52.045Z,25.09
2023-01-24T12:03:02.001Z,25.02
2023-01-24T12:03:11.973Z,25.08
2023-01-24T12:03:23.264Z,25.08
2023-01-24T12:03:32.045Z,25.10
2023-01-24T12:03:41.997Z,25.08
2023-01-24T12:03:51.948Z,25.12
2023-01-24T12:04:01.938Z,25.12
2023-01-24T12:04:11.948Z,25.13
2023-01-24T12:04:21.878Z,25.13
2023-01-24T12:04:31.836Z,25.16
2023-01-24T12:04:41.830Z,25.15
2023-01-24T12:04:51.815Z,25.16
2023-01-24T12:05:01.788Z,25.16
2023-01-24T12:05:11.766Z,25.17
2023-01-24T12:05:22.144Z,25.19
2023-01-24T12:05:31.791Z,25.17
2023-01-24T12:05:41.728Z,25.16
2023-01-24T12:05:51.723Z,25.15
2023-01-24T12:06:01.688Z,25.15
2023-01-24T12:06:11.683Z,25.16
2023-01-24T12:06:21.643Z,25.15
2023-01-24T12:06:31.633Z,25.16
2023-01-24T12:06:41.612Z,25.16